This is the latest recevied weather packets stored in our database for station/object LZ0VRC-10. If no packets are shown the sender has not sent any weather packets the latest 10 day(s).
| Time | Temp. | Humidity | Pressure | Rain* | Wind** | Luminosity | Snow |
|---|---|---|---|---|---|---|---|
| 1778078102 | 30.56° C | 22% | 1013 hPa | - | - | - | - |
| 1778078097 | 30.56° C | 22% | 1013 hPa | - | - | - | - |
| 1778077202 | 30.56° C | 21% | 1013.1 hPa | - | - | - | - |
| 1778077197 | 30.56° C | 21% | 1013.1 hPa | - | - | - | - |
| 1778076302 | 31.67° C | 21% | 1013.1 hPa | - | - | - | - |
| 1778076297 | 31.67° C | 21% | 1013.1 hPa | - | - | - | - |
| 1778075402 | 32.22° C | 21% | 1013.1 hPa | - | - | - | - |
| 1778075397 | 32.22° C | 21% | 1013.1 hPa | - | - | - | - |
| 1778074502 | 31.11° C | 22% | 1013.2 hPa | - | - | - | - |
| 1778074497 | 31.11° C | 22% | 1013.2 hPa | - | - | - | - |
| 1778073602 | 31.11° C | 21% | 1013.4 hPa | - | - | - | - |
| 1778073597 | 31.11° C | 21% | 1013.4 hPa | - | - | - | - |
| 1778072702 | 34.44° C | 17% | 1013.5 hPa | - | - | - | - |
| 1778072697 | 34.44° C | 17% | 1013.5 hPa | - | - | - | - |
| 1778071797 | 33.33° C | 19% | 1013.5 hPa | - | - | - | - |
| 1778070902 | 32.22° C | 20% | 1013.8 hPa | - | - | - | - |
| 1778070897 | 32.22° C | 20% | 1013.8 hPa | - | - | - | - |
| 1778070002 | 31.67° C | 21% | 1013.9 hPa | - | - | - | - |
| 1778069997 | 31.67° C | 21% | 1013.9 hPa | - | - | - | - |
| 1778069102 | 32.22° C | 20% | 1014.2 hPa | - | - | - | - |
| 1778069097 | 32.22° C | 20% | 1014.2 hPa | - | - | - | - |
| 1778068205 | 32.78° C | 20% | 1014.3 hPa | - | - | - | - |
| 1778068197 | 32.78° C | 20% | 1014.3 hPa | - | - | - | - |
| 1778067297 | 33.89° C | 18% | 1014.5 hPa | - | - | - | - |
| 1778066402 | 33.89° C | 18% | 1014.6 hPa | - | - | - | - |
* Rain since midnight (hover to see other rain measurements)
** Current wind speed in m/s (hover to see current wind gust speed)